createdAt,value
2019-04-29T00:02:07.276Z,6.27
2019-04-29T00:04:54.677Z,6.40
2019-04-29T00:07:42.225Z,5.70
2019-04-29T00:10:30.059Z,2.63
2019-04-29T00:13:17.587Z,5.17
2019-04-29T00:16:23.935Z,4.50
2019-04-29T00:19:30.296Z,3.00
2019-04-29T00:22:17.847Z,3.73
2019-04-29T00:25:05.333Z,5.17
2019-04-29T00:31:02.347Z,3.97
2019-04-29T00:33:50.586Z,4.30
2019-04-29T00:40:10.827Z,2.80
2019-04-29T00:43:17.250Z,3.10
2019-04-29T00:46:04.877Z,3.07
2019-04-29T00:48:52.432Z,4.20
2019-04-29T00:51:39.935Z,4.73
2019-04-29T00:57:40.319Z,4.07
2019-04-29T01:00:46.643Z,3.33
2019-04-29T01:03:34.105Z,5.43
2019-04-29T01:06:21.571Z,5.20
2019-04-29T01:12:05.964Z,3.83
2019-04-29T01:15:14.537Z,5.57
2019-04-29T01:21:08.830Z,3.67
2019-04-29T01:27:21.709Z,4.37
2019-04-29T01:33:04.244Z,3.90
2019-04-29T01:44:57.829Z,6.00
2019-04-29T01:47:45.514Z,4.93
2019-04-29T01:50:32.970Z,5.60
2019-04-29T01:53:20.420Z,4.97
2019-04-29T01:56:08.792Z,4.70
2019-04-29T01:58:56.317Z,5.23
2019-04-29T02:01:43.851Z,7.40
2019-04-29T02:04:31.341Z,5.23
2019-04-29T02:07:19.099Z,6.13
2019-04-29T02:10:25.504Z,5.43
2019-04-29T02:13:13.062Z,6.57
2019-04-29T02:16:03.623Z,4.57
2019-04-29T02:18:51.163Z,6.57
2019-04-29T02:21:38.640Z,5.00
2019-04-29T02:24:27.789Z,5.87
2019-04-29T02:27:15.524Z,4.40
2019-04-29T02:30:03.394Z,3.97
2019-04-29T02:32:54.548Z,4.10
2019-04-29T02:39:24.946Z,5.37
2019-04-29T02:42:31.383Z,5.47
2019-04-29T02:48:34.252Z,4.13
2019-04-29T02:51:40.186Z,5.07
2019-04-29T02:54:29.053Z,7.50
2019-04-29T02:57:35.358Z,6.43
2019-04-29T03:00:41.727Z,4.60
2019-04-29T03:03:48.077Z,5.13
2019-04-29T03:06:35.837Z,6.70
2019-04-29T03:09:23.246Z,3.90
2019-04-29T03:12:10.677Z,5.57
2019-04-29T03:14:58.134Z,5.27
2019-04-29T03:17:45.633Z,4.70
2019-04-29T03:20:51.991Z,6.27
2019-04-29T03:24:00.421Z,4.33
2019-04-29T03:26:47.910Z,5.27
2019-04-29T03:29:35.444Z,4.70
2019-04-29T03:32:25.505Z,5.63
2019-04-29T03:38:06.557Z,4.90
2019-04-29T03:40:54.187Z,4.90
2019-04-29T03:43:41.718Z,6.37
2019-04-29T03:46:29.245Z,5.27
2019-04-29T03:49:21.592Z,4.97
2019-04-29T03:52:27.938Z,5.13
2019-04-29T03:55:17.501Z,5.13
2019-04-29T04:01:15.475Z,7.47
2019-04-29T04:07:33.729Z,4.90
2019-04-29T04:10:21.274Z,6.93
2019-04-29T04:13:09.149Z,5.40
2019-04-29T04:19:07.779Z,8.00
2019-04-29T04:21:57.131Z,5.90
2019-04-29T04:24:44.595Z,5.10
2019-04-29T04:27:36.388Z,14.60
2019-04-29T04:30:23.917Z,8.23
2019-04-29T04:33:11.412Z,7.00
2019-04-29T04:35:58.932Z,6.13
2019-04-29T04:41:52.867Z,4.63
2019-04-29T04:48:05.069Z,7.53
2019-04-29T04:50:52.570Z,5.43
2019-04-29T04:53:40.363Z,6.07
2019-04-29T04:56:27.723Z,6.20
2019-04-29T04:59:09.150Z,6.03
2019-04-29T05:01:57.784Z,5.43
2019-04-29T05:04:45.289Z,8.37
2019-04-29T05:07:32.713Z,5.67
2019-04-29T05:10:20.516Z,7.20
2019-04-29T05:13:07.809Z,6.73
2019-04-29T05:15:55.507Z,8.27
2019-04-29T05:18:43.037Z,5.93
2019-04-29T05:21:30.570Z,6.23
2019-04-29T05:27:25.394Z,8.27
2019-04-29T05:30:15.300Z,15.37
2019-04-29T05:33:03.896Z,10.00
2019-04-29T05:36:10.669Z,9.10
2019-04-29T05:39:17.604Z,7.80
2019-04-29T05:42:07.668Z,7.83
2019-04-29T05:45:13.326Z,15.10
2019-04-29T05:48:07.539Z,7.97
2019-04-29T05:53:55.848Z,9.77
2019-04-29T05:56:44.525Z,10.67
2019-04-29T05:59:32.312Z,10.00
2019-04-29T06:02:23.516Z,7.90
2019-04-29T06:05:09.220Z,8.67
2019-04-29T06:08:00.995Z,10.17
2019-04-29T06:10:45.718Z,9.23
2019-04-29T06:13:33.153Z,7.83
2019-04-29T06:16:15.921Z,8.03
2019-04-29T06:19:05.907Z,8.10
2019-04-29T06:21:53.159Z,9.50
2019-04-29T06:24:41.220Z,7.70
2019-04-29T06:27:33.261Z,8.63
2019-04-29T06:30:19.946Z,10.23
2019-04-29T06:36:16.840Z,9.00
2019-04-29T06:39:08.098Z,11.43
2019-04-29T06:41:55.514Z,9.53
2019-04-29T06:44:44.355Z,12.60
2019-04-29T06:47:32.209Z,9.77
2019-04-29T06:50:22.936Z,9.77
2019-04-29T06:53:10.447Z,10.37
2019-04-29T06:55:57.990Z,9.90
2019-04-29T07:01:55.179Z,13.13
2019-04-29T07:04:42.947Z,10.37
2019-04-29T07:07:30.934Z,10.10
2019-04-29T07:10:21.659Z,11.00
2019-04-29T07:13:07.923Z,12.07
2019-04-29T07:15:55.445Z,13.40
2019-04-29T07:18:48.257Z,12.33
2019-04-29T07:21:32.183Z,12.03
2019-04-29T07:24:21.976Z,15.47
2019-04-29T07:27:09.753Z,13.20
2019-04-29T07:29:57.249Z,14.40
2019-04-29T07:32:47.224Z,14.73
2019-04-29T07:35:33.908Z,13.97
2019-04-29T07:38:21.449Z,15.60
2019-04-29T07:41:10.036Z,14.90
2019-04-29T07:43:58.379Z,15.63
2019-04-29T07:47:04.722Z,17.33
2019-04-29T07:49:53.035Z,17.60
2019-04-29T07:52:40.556Z,15.37
2019-04-29T07:58:39.472Z,23.67
2019-04-29T08:01:27.047Z,23.63
2019-04-29T08:04:14.470Z,23.33
2019-04-29T08:07:02.018Z,21.83
2019-04-29T08:09:49.750Z,22.83
2019-04-29T08:12:37.623Z,21.80
2019-04-29T08:15:25.324Z,29.20
2019-04-29T08:18:16.341Z,25.80
2019-04-29T08:21:02.289Z,23.83
2019-04-29T08:23:49.779Z,24.73
2019-04-29T08:26:38.222Z,26.93
2019-04-29T08:29:30.684Z,25.53
2019-04-29T08:32:16.213Z,24.60
2019-04-29T08:35:03.807Z,27.17
2019-04-29T08:37:51.340Z,30.70
2019-04-29T08:44:15.757Z,26.23
2019-04-29T08:47:12.299Z,32.53
2019-04-29T08:50:02.111Z,27.73
2019-04-29T08:52:51.281Z,22.67
2019-04-29T08:55:39.096Z,23.77
2019-04-29T08:58:26.710Z,24.30
2019-04-29T09:01:14.166Z,27.07
2019-04-29T09:04:02.287Z,25.57
2019-04-29T09:06:51.537Z,29.30
2019-04-29T09:10:01.655Z,33.57
2019-04-29T09:12:47.404Z,29.63
2019-04-29T09:15:35.217Z,23.63
2019-04-29T09:21:29.257Z,24.67
2019-04-29T09:24:16.866Z,27.90
2019-04-29T09:30:17.960Z,28.77
2019-04-29T09:33:08.703Z,29.00
2019-04-29T09:35:54.629Z,25.77
2019-04-29T09:38:42.145Z,27.33
2019-04-29T09:41:51.648Z,29.17
2019-04-29T09:44:58.043Z,26.23
2019-04-29T09:47:45.469Z,22.93
2019-04-29T09:50:34.241Z,19.70
2019-04-29T09:53:41.304Z,19.77
2019-04-29T09:56:28.870Z,17.03
2019-04-29T09:59:37.485Z,21.43
2019-04-29T10:02:43.875Z,23.80
2019-04-29T10:08:40.859Z,17.37
2019-04-29T10:11:30.608Z,15.97
2019-04-29T10:14:18.137Z,15.57
2019-04-29T10:17:24.514Z,14.63
2019-04-29T10:20:21.458Z,19.83
2019-04-29T10:23:08.947Z,18.70
2019-04-29T10:25:56.492Z,15.03
2019-04-29T10:29:02.882Z,15.40
2019-04-29T10:31:50.426Z,14.23
2019-04-29T10:34:43.049Z,13.00
2019-04-29T10:37:31.318Z,15.93
2019-04-29T10:40:18.783Z,11.93
2019-04-29T10:43:25.107Z,15.23
2019-04-29T10:46:31.481Z,16.43
2019-04-29T10:49:39.319Z,16.10
2019-04-29T10:52:27.227Z,16.03
2019-04-29T10:55:33.889Z,12.93
2019-04-29T10:58:29.460Z,14.23
2019-04-29T11:04:21.919Z,12.77
2019-04-29T11:07:31.110Z,13.20
2019-04-29T11:13:35.007Z,15.03
2019-04-29T11:16:22.990Z,12.83
2019-04-29T11:19:11.698Z,15.23
2019-04-29T11:22:02.198Z,14.93
2019-04-29T11:25:08.103Z,14.27
2019-04-29T11:27:56.308Z,16.53
2019-04-29T11:30:44.313Z,14.10
2019-04-29T11:36:45.247Z,12.00
2019-04-29T11:39:32.762Z,10.47
2019-04-29T11:42:20.324Z,12.30
2019-04-29T11:45:09.299Z,13.90
2019-04-29T11:48:15.643Z,12.70
2019-04-29T11:51:22.097Z,12.97
2019-04-29T11:54:12.717Z,12.87
2019-04-29T11:56:59.058Z,11.00
2019-04-29T12:06:02.409Z,12.33
2019-04-29T12:08:53.321Z,14.47
2019-04-29T12:11:39.050Z,15.17
2019-04-29T12:14:45.456Z,13.90
2019-04-29T12:17:51.830Z,13.70
2019-04-29T12:20:58.175Z,14.17
2019-04-29T12:23:47.737Z,14.77
2019-04-29T12:26:43.176Z,14.50
2019-04-29T12:29:25.298Z,15.17
2019-04-29T12:32:31.654Z,13.23
2019-04-29T12:35:51.175Z,12.03
2019-04-29T12:38:49.715Z,11.73
2019-04-29T12:45:18.710Z,14.80
2019-04-29T12:47:55.028Z,13.33
2019-04-29T12:50:42.817Z,11.77
2019-04-29T12:53:32.867Z,11.03
2019-04-29T12:59:30.629Z,12.50
2019-04-29T13:02:39.395Z,11.87
2019-04-29T13:05:57.605Z,12.97
2019-04-29T13:08:51.108Z,12.97
2019-04-29T13:11:48.354Z,10.57
2019-04-29T13:17:41.678Z,12.50
2019-04-29T13:20:29.243Z,11.17
2019-04-29T13:23:24.359Z,10.70
2019-04-29T13:26:08.030Z,12.33
2019-04-29T13:29:00.850Z,9.30
2019-04-29T13:31:44.448Z,10.60
2019-04-29T13:37:45.023Z,8.50
2019-04-29T13:40:33.103Z,7.77
2019-04-29T13:43:25.883Z,8.33
2019-04-29T13:49:20.959Z,10.23
2019-04-29T13:52:08.456Z,8.13
2019-04-29T13:55:16.153Z,8.33
2019-04-29T13:57:49.565Z,7.63
2019-04-29T14:00:59.894Z,8.73
2019-04-29T14:07:00.863Z,8.67
2019-04-29T14:09:48.306Z,9.03
2019-04-29T14:13:05.255Z,12.67
2019-04-29T14:15:25.475Z,7.10
2019-04-29T14:18:13.744Z,8.17
2019-04-29T14:21:02.188Z,7.87
2019-04-29T14:23:49.679Z,7.97
2019-04-29T14:26:41.729Z,8.50
2019-04-29T14:29:30.275Z,8.23
2019-04-29T14:32:18.452Z,7.50
2019-04-29T14:38:06.170Z,8.83
2019-04-29T14:40:55.034Z,9.33
2019-04-29T14:44:02.133Z,10.63
2019-04-29T14:47:08.530Z,8.90
2019-04-29T14:49:58.673Z,9.13
2019-04-29T14:52:49.301Z,9.43
2019-04-29T14:55:35.247Z,8.23
2019-04-29T14:58:24.742Z,6.90
2019-04-29T15:04:18.442Z,7.33
2019-04-29T15:07:05.083Z,7.17
2019-04-29T15:10:11.478Z,5.23
2019-04-29T15:13:19.793Z,5.10
2019-04-29T15:16:13.676Z,7.17
2019-04-29T15:19:17.452Z,5.40
2019-04-29T15:24:54.473Z,7.13
2019-04-29T15:27:41.913Z,7.03
2019-04-29T15:30:31.691Z,5.97
2019-04-29T15:33:18.673Z,7.40
2019-04-29T15:36:06.131Z,6.00
2019-04-29T15:39:08.783Z,9.13
2019-04-29T15:41:43.169Z,6.30
2019-04-29T15:44:30.793Z,6.70
2019-04-29T15:47:18.173Z,7.27
2019-04-29T15:50:18.098Z,6.50
2019-04-29T15:52:58.684Z,5.80
2019-04-29T15:55:46.395Z,6.17
2019-04-29T15:58:33.836Z,6.20
2019-04-29T16:01:27.099Z,7.47
2019-04-29T16:07:39.724Z,5.77
2019-04-29T16:10:46.013Z,7.97
2019-04-29T16:13:34.340Z,4.83
2019-04-29T16:16:21.849Z,4.97
2019-04-29T16:19:10.523Z,5.97
2019-04-29T16:21:58.670Z,5.47
2019-04-29T16:24:46.178Z,5.47
2019-04-29T16:27:33.647Z,6.63
2019-04-29T16:30:25.905Z,7.20
2019-04-29T16:33:14.107Z,7.50
2019-04-29T16:36:04.881Z,6.73
2019-04-29T16:38:51.861Z,6.20
2019-04-29T16:42:01.359Z,5.87
2019-04-29T16:44:48.605Z,6.20
2019-04-29T16:47:36.025Z,5.97
2019-04-29T16:50:23.526Z,6.30
2019-04-29T16:53:11.028Z,5.63
2019-04-29T16:55:58.501Z,5.97
2019-04-29T16:58:46.387Z,4.67
2019-04-29T17:01:33.863Z,7.67
2019-04-29T17:04:21.580Z,5.03
2019-04-29T17:07:13.355Z,5.17
2019-04-29T17:10:18.056Z,6.10
2019-04-29T17:12:58.876Z,4.50
2019-04-29T17:15:52.141Z,5.13
2019-04-29T17:18:35.858Z,5.43
2019-04-29T17:21:23.709Z,5.23
2019-04-29T17:24:30.061Z,4.93
2019-04-29T17:27:42.339Z,4.23
2019-04-29T17:30:46.415Z,6.87
2019-04-29T17:33:53.313Z,9.50
2019-04-29T17:36:42.577Z,4.87
2019-04-29T17:39:32.867Z,6.50
2019-04-29T17:42:21.553Z,5.97
2019-04-29T17:51:33.965Z,4.63
2019-04-29T17:57:39.113Z,6.30
2019-04-29T18:00:55.494Z,4.30
2019-04-29T18:03:53.719Z,6.67
2019-04-29T18:10:24.530Z,8.07
2019-04-29T18:13:16.275Z,6.80
2019-04-29T18:16:04.302Z,6.60
2019-04-29T18:22:21.899Z,5.77
2019-04-29T18:25:31.066Z,5.10
2019-04-29T18:28:18.334Z,6.60
2019-04-29T18:34:00.715Z,8.03
2019-04-29T18:36:48.164Z,8.77
2019-04-29T18:39:35.875Z,6.27
2019-04-29T18:42:23.376Z,6.27
2019-04-29T18:45:10.809Z,6.33
2019-04-29T18:48:21.488Z,8.40
2019-04-29T18:51:06.527Z,6.63
2019-04-29T18:53:55.586Z,9.27
2019-04-29T18:56:43.230Z,7.83
2019-04-29T18:59:33.316Z,7.43
2019-04-29T19:08:33.526Z,9.20
2019-04-29T19:11:29.940Z,11.07
2019-04-29T19:14:10.218Z,8.53
2019-04-29T19:17:01.267Z,11.63
2019-04-29T19:19:47.013Z,10.63
2019-04-29T19:22:36.011Z,10.10
2019-04-29T19:25:25.753Z,13.43
2019-04-29T19:28:17.340Z,12.93
2019-04-29T19:31:03.694Z,11.60
2019-04-29T19:33:51.748Z,12.30
2019-04-29T19:36:39.202Z,11.90
2019-04-29T19:39:27.134Z,12.30
2019-04-29T19:42:28.659Z,11.23
2019-04-29T19:45:06.337Z,12.97
2019-04-29T19:47:55.811Z,13.73
2019-04-29T19:50:45.131Z,14.87
2019-04-29T19:53:35.966Z,13.70
2019-04-29T19:56:24.371Z,17.50
2019-04-29T19:59:13.748Z,13.70
2019-04-29T20:02:05.774Z,14.07
2019-04-29T20:08:01.930Z,18.93
2019-04-29T20:10:51.923Z,14.70
2019-04-29T20:17:12.356Z,16.80
2019-04-29T20:23:10.332Z,17.50
2019-04-29T20:26:12.826Z,16.67
2019-04-29T20:28:51.064Z,17.10
2019-04-29T20:31:38.959Z,20.27
2019-04-29T20:34:28.262Z,16.97
2019-04-29T20:37:19.721Z,16.90
2019-04-29T20:40:05.826Z,18.90
2019-04-29T20:42:54.905Z,21.60
2019-04-29T20:45:45.520Z,18.57
2019-04-29T20:48:36.717Z,18.30
2019-04-29T20:51:23.217Z,18.23
2019-04-29T20:57:17.445Z,19.07
2019-04-29T21:00:00.772Z,19.40
2019-04-29T21:02:48.999Z,19.20
2019-04-29T21:05:47.104Z,18.30
2019-04-29T21:08:23.176Z,16.80
2019-04-29T21:11:20.917Z,15.93
2019-04-29T21:14:27.204Z,17.30
2019-04-29T21:17:11.422Z,16.03
2019-04-29T21:20:00.496Z,15.93
2019-04-29T21:22:46.541Z,24.37
2019-04-29T21:25:32.742Z,15.33
2019-04-29T21:28:18.939Z,15.63
2019-04-29T21:31:05.329Z,14.40
2019-04-29T21:33:57.083Z,12.93
2019-04-29T21:37:01.575Z,11.87
2019-04-29T21:40:14.613Z,12.83
2019-04-29T21:42:59.855Z,11.23
2019-04-29T21:45:48.343Z,11.30
2019-04-29T21:48:36.945Z,10.67
2019-04-29T21:51:21.605Z,12.33
2019-04-29T21:54:09.646Z,11.50
2019-04-29T21:56:55.619Z,11.23
2019-04-29T21:59:46.185Z,11.90
2019-04-29T22:02:29.547Z,12.03
2019-04-29T22:05:18.346Z,11.43
2019-04-29T22:08:04.245Z,13.90
2019-04-29T22:10:50.505Z,13.63
2019-04-29T22:13:38.990Z,15.47
2019-04-29T22:16:25.163Z,17.27
2019-04-29T22:19:12.751Z,18.03
2019-04-29T22:22:01.456Z,16.67
2019-04-29T22:24:46.873Z,18.97
2019-04-29T22:27:34.165Z,16.87
2019-04-29T22:30:20.879Z,15.67
2019-04-29T22:33:07.928Z,17.53
2019-04-29T22:35:55.462Z,17.17
2019-04-29T22:38:43.615Z,20.90
2019-04-29T22:41:48.716Z,16.97
2019-04-29T22:44:36.018Z,16.70
2019-04-29T22:47:23.677Z,20.97
2019-04-29T22:50:10.199Z,16.93
2019-04-29T22:52:57.193Z,19.23
2019-04-29T22:55:45.114Z,16.90
2019-04-29T22:58:31.582Z,18.93
2019-04-29T23:01:19.547Z,17.53
2019-04-29T23:04:09.591Z,18.07
2019-04-29T23:06:56.273Z,19.70
2019-04-29T23:09:46.429Z,19.37
2019-04-29T23:12:30.004Z,18.80
2019-04-29T23:15:22.535Z,18.37
2019-04-29T23:18:05.320Z,18.93
2019-04-29T23:21:22.363Z,20.33
2019-04-29T23:24:20.841Z,21.60
2019-04-29T23:27:07.534Z,21.67
2019-04-29T23:29:53.467Z,20.87
2019-04-29T23:32:44.297Z,21.73
2019-04-29T23:35:27.627Z,21.57
2019-04-29T23:38:15.335Z,23.17
2019-04-29T23:41:01.656Z,22.07
2019-04-29T23:43:47.847Z,26.30
2019-04-29T23:46:35.561Z,23.53
2019-04-29T23:49:21.908Z,22.67
2019-04-29T23:52:11.558Z,22.60
2019-04-29T23:54:57.409Z,25.70
2019-04-29T23:58:08.463Z,22.10
